sensor_id;sensor_type;location;lat;lon;timestamp;P1;durP1;ratioP1;P2;durP2;ratioP2
46931;SDS011;32670;51.464;11.964;2023-04-06T00:00:58;1.97;;;1.00;;
46931;SDS011;32670;51.464;11.964;2023-04-06T00:03:24;4.50;;;1.27;;
46931;SDS011;32670;51.464;11.964;2023-04-06T00:05:50;1.73;;;0.90;;
46931;SDS011;32670;51.464;11.964;2023-04-06T00:08:15;5.40;;;0.90;;
46931;SDS011;32670;51.464;11.964;2023-04-06T00:10:41;1.23;;;1.00;;
46931;SDS011;32670;51.464;11.964;2023-04-06T00:13:06;2.70;;;0.80;;
46931;SDS011;32670;51.464;11.964;2023-04-06T00:15:32;5.53;;;1.00;;
46931;SDS011;32670;51.464;11.964;2023-04-06T00:17:58;3.37;;;1.00;;
46931;SDS011;32670;51.464;11.964;2023-04-06T00:20:24;2.00;;;1.20;;
46931;SDS011;32670;51.464;11.964;2023-04-06T00:22:50;1.40;;;1.00;;
46931;SDS011;32670;51.464;11.964;2023-04-06T00:25:15;1.90;;;1.10;;
46931;SDS011;32670;51.464;11.964;2023-04-06T00:27:41;5.50;;;1.13;;
46931;SDS011;32670;51.464;11.964;2023-04-06T00:30:07;2.63;;;1.10;;
46931;SDS011;32670;51.464;11.964;2023-04-06T00:32:33;1.73;;;0.83;;
46931;SDS011;32670;51.464;11.964;2023-04-06T00:34:59;2.67;;;1.13;;
46931;SDS011;32670;51.464;11.964;2023-04-06T00:37:26;1.03;;;0.80;;
46931;SDS011;32670;51.464;11.964;2023-04-06T00:39:51;3.00;;;1.00;;
46931;SDS011;32670;51.464;11.964;2023-04-06T00:42:17;6.00;;;1.20;;
46931;SDS011;32670;51.464;11.964;2023-04-06T00:44:50;2.07;;;1.00;;
46931;SDS011;32670;51.464;11.964;2023-04-06T00:47:16;1.23;;;0.93;;
46931;SDS011;32670;51.464;11.964;2023-04-06T00:49:42;1.40;;;0.90;;
46931;SDS011;32670;51.464;11.964;2023-04-06T00:52:07;1.10;;;0.90;;
46931;SDS011;32670;51.464;11.964;2023-04-06T00:54:33;1.77;;;0.90;;
46931;SDS011;32670;51.464;11.964;2023-04-06T00:56:58;1.47;;;1.13;;
46931;SDS011;32670;51.464;11.964;2023-04-06T00:59:23;1.67;;;1.10;;
46931;SDS011;32670;51.464;11.964;2023-04-06T01:01:49;1.17;;;0.83;;
46931;SDS011;32670;51.464;11.964;2023-04-06T01:04:18;2.10;;;1.00;;
46931;SDS011;32670;51.464;11.964;2023-04-06T01:06:43;7.40;;;0.90;;
46931;SDS011;32670;51.464;11.964;2023-04-06T01:09:10;2.40;;;1.00;;
46931;SDS011;32670;51.464;11.964;2023-04-06T01:11:35;1.50;;;0.90;;
46931;SDS011;32670;51.464;11.964;2023-04-06T01:14:01;2.90;;;1.00;;
46931;SDS011;32670;51.464;11.964;2023-04-06T01:16:27;1.10;;;0.90;;
46931;SDS011;32670;51.464;11.964;2023-04-06T01:18:53;2.20;;;1.00;;
46931;SDS011;32670;51.464;11.964;2023-04-06T01:21:18;2.70;;;1.20;;
46931;SDS011;32670;51.464;11.964;2023-04-06T01:23:44;3.57;;;1.20;;
46931;SDS011;32670;51.464;11.964;2023-04-06T01:26:11;7.40;;;1.00;;
46931;SDS011;32670;51.464;11.964;2023-04-06T01:28:39;1.20;;;1.10;;
46931;SDS011;32670;51.464;11.964;2023-04-06T01:31:06;1.90;;;0.87;;
46931;SDS011;32670;51.464;11.964;2023-04-06T01:33:32;1.03;;;1.00;;
46931;SDS011;32670;51.464;11.964;2023-04-06T01:35:58;3.03;;;0.63;;
46931;SDS011;32670;51.464;11.964;2023-04-06T01:38:24;2.20;;;0.97;;
46931;SDS011;32670;51.464;11.964;2023-04-06T01:40:50;2.20;;;0.83;;
46931;SDS011;32670;51.464;11.964;2023-04-06T01:43:16;0.80;;;0.80;;
46931;SDS011;32670;51.464;11.964;2023-04-06T01:45:41;0.80;;;0.80;;
46931;SDS011;32670;51.464;11.964;2023-04-06T01:48:07;0.90;;;0.90;;
46931;SDS011;32670;51.464;11.964;2023-04-06T01:50:33;0.97;;;0.90;;
46931;SDS011;32670;51.464;11.964;2023-04-06T01:52:58;1.77;;;0.80;;
46931;SDS011;32670;51.464;11.964;2023-04-06T01:55:23;0.83;;;0.80;;
46931;SDS011;32670;51.464;11.964;2023-04-06T01:57:49;0.80;;;0.80;;
46931;SDS011;32670;51.464;11.964;2023-04-06T02:00:15;1.10;;;1.00;;
46931;SDS011;32670;51.464;11.964;2023-04-06T02:02:40;2.33;;;1.00;;
46931;SDS011;32670;51.464;11.964;2023-04-06T02:05:06;0.80;;;0.80;;
46931;SDS011;32670;51.464;11.964;2023-04-06T02:07:32;0.90;;;0.90;;
46931;SDS011;32670;51.464;11.964;2023-04-06T02:09:57;2.20;;;0.90;;
46931;SDS011;32670;51.464;11.964;2023-04-06T02:12:23;0.90;;;0.90;;
46931;SDS011;32670;51.464;11.964;2023-04-06T02:14:48;1.20;;;0.90;;
46931;SDS011;32670;51.464;11.964;2023-04-06T02:17:14;1.40;;;0.90;;
46931;SDS011;32670;51.464;11.964;2023-04-06T02:19:39;1.43;;;0.90;;
46931;SDS011;32670;51.464;11.964;2023-04-06T02:22:05;3.23;;;0.90;;
46931;SDS011;32670;51.464;11.964;2023-04-06T02:24:31;3.40;;;0.90;;
46931;SDS011;32670;51.464;11.964;2023-04-06T02:26:56;0.80;;;0.80;;
46931;SDS011;32670;51.464;11.964;2023-04-06T02:29:22;3.40;;;0.90;;
46931;SDS011;32670;51.464;11.964;2023-04-06T02:31:47;1.23;;;0.67;;
46931;SDS011;32670;51.464;11.964;2023-04-06T02:34:12;1.43;;;0.80;;
46931;SDS011;32670;51.464;11.964;2023-04-06T02:36:42;0.83;;;0.83;;
46931;SDS011;32670;51.464;11.964;2023-04-06T02:39:09;1.60;;;0.80;;
46931;SDS011;32670;51.464;11.964;2023-04-06T02:41:35;2.00;;;0.90;;
46931;SDS011;32670;51.464;11.964;2023-04-06T02:44:00;1.63;;;0.90;;
46931;SDS011;32670;51.464;11.964;2023-04-06T02:46:26;1.27;;;0.80;;
46931;SDS011;32670;51.464;11.964;2023-04-06T02:48:51;2.53;;;0.80;;
46931;SDS011;32670;51.464;11.964;2023-04-06T02:51:17;1.77;;;0.97;;
46931;SDS011;32670;51.464;11.964;2023-04-06T02:53:42;0.70;;;0.70;;
46931;SDS011;32670;51.464;11.964;2023-04-06T02:56:08;1.07;;;0.87;;
46931;SDS011;32670;51.464;11.964;2023-04-06T02:58:33;1.23;;;0.70;;
46931;SDS011;32670;51.464;11.964;2023-04-06T03:00:58;2.80;;;0.70;;
46931;SDS011;32670;51.464;11.964;2023-04-06T03:03:24;2.63;;;1.00;;
46931;SDS011;32670;51.464;11.964;2023-04-06T03:05:50;0.83;;;0.77;;
46931;SDS011;32670;51.464;11.964;2023-04-06T03:08:15;0.80;;;0.80;;
46931;SDS011;32670;51.464;11.964;2023-04-06T03:10:41;0.80;;;0.80;;
46931;SDS011;32670;51.464;11.964;2023-04-06T03:13:06;0.90;;;0.83;;
46931;SDS011;32670;51.464;11.964;2023-04-06T03:15:32;0.80;;;0.80;;
46931;SDS011;32670;51.464;11.964;2023-04-06T03:17:57;0.90;;;0.90;;
46931;SDS011;32670;51.464;11.964;2023-04-06T03:20:23;0.90;;;0.80;;
46931;SDS011;32670;51.464;11.964;2023-04-06T03:22:48;1.37;;;0.67;;
46931;SDS011;32670;51.464;11.964;2023-04-06T03:25:14;0.70;;;0.70;;
46931;SDS011;32670;51.464;11.964;2023-04-06T03:27:39;0.70;;;0.70;;
46931;SDS011;32670;51.464;11.964;2023-04-06T03:30:05;0.70;;;0.70;;
46931;SDS011;32670;51.464;11.964;2023-04-06T03:32:31;1.80;;;0.73;;
46931;SDS011;32670;51.464;11.964;2023-04-06T03:34:59;0.80;;;0.80;;
46931;SDS011;32670;51.464;11.964;2023-04-06T03:37:25;1.53;;;0.90;;
46931;SDS011;32670;51.464;11.964;2023-04-06T03:39:51;0.60;;;0.60;;
46931;SDS011;32670;51.464;11.964;2023-04-06T03:42:17;0.83;;;0.83;;
46931;SDS011;32670;51.464;11.964;2023-04-06T03:44:42;1.07;;;0.77;;
46931;SDS011;32670;51.464;11.964;2023-04-06T03:47:07;0.80;;;0.80;;
46931;SDS011;32670;51.464;11.964;2023-04-06T03:49:33;1.10;;;0.80;;
46931;SDS011;32670;51.464;11.964;2023-04-06T03:51:58;1.23;;;0.90;;
46931;SDS011;32670;51.464;11.964;2023-04-06T03:54:24;0.70;;;0.70;;
46931;SDS011;32670;51.464;11.964;2023-04-06T03:56:49;0.90;;;0.90;;
46931;SDS011;32670;51.464;11.964;2023-04-06T03:59:15;1.77;;;0.80;;
46931;SDS011;32670;51.464;11.964;2023-04-06T04:01:40;1.23;;;0.80;;
46931;SDS011;32670;51.464;11.964;2023-04-06T04:04:06;0.97;;;0.70;;
46931;SDS011;32670;51.464;11.964;2023-04-06T04:06:31;1.40;;;0.80;;
46931;SDS011;32670;51.464;11.964;2023-04-06T04:08:57;0.73;;;0.70;;
46931;SDS011;32670;51.464;11.964;2023-04-06T04:11:22;1.57;;;0.83;;
46931;SDS011;32670;51.464;11.964;2023-04-06T04:13:48;1.37;;;0.70;;
46931;SDS011;32670;51.464;11.964;2023-04-06T04:16:13;1.53;;;0.67;;
46931;SDS011;32670;51.464;11.964;2023-04-06T04:18:39;0.80;;;0.70;;
46931;SDS011;32670;51.464;11.964;2023-04-06T04:21:04;1.50;;;0.80;;
46931;SDS011;32670;51.464;11.964;2023-04-06T04:23:30;1.73;;;0.87;;
46931;SDS011;32670;51.464;11.964;2023-04-06T04:25:55;0.63;;;0.57;;
46931;SDS011;32670;51.464;11.964;2023-04-06T04:28:21;2.03;;;1.00;;
46931;SDS011;32670;51.464;11.964;2023-04-06T04:30:46;1.50;;;0.70;;
46931;SDS011;32670;51.464;11.964;2023-04-06T04:33:12;1.13;;;0.70;;
46931;SDS011;32670;51.464;11.964;2023-04-06T04:35:37;0.93;;;0.80;;
46931;SDS011;32670;51.464;11.964;2023-04-06T04:38:03;0.70;;;0.70;;
46931;SDS011;32670;51.464;11.964;2023-04-06T04:40:28;3.27;;;0.80;;
46931;SDS011;32670;51.464;11.964;2023-04-06T04:42:54;0.80;;;0.80;;
46931;SDS011;32670;51.464;11.964;2023-04-06T04:45:19;2.20;;;0.80;;
46931;SDS011;32670;51.464;11.964;2023-04-06T04:47:45;1.53;;;0.80;;
46931;SDS011;32670;51.464;11.964;2023-04-06T04:50:10;1.27;;;0.90;;
46931;SDS011;32670;51.464;11.964;2023-04-06T04:52:37;0.97;;;0.70;;
46931;SDS011;32670;51.464;11.964;2023-04-06T04:55:02;0.70;;;0.67;;
46931;SDS011;32670;51.464;11.964;2023-04-06T04:57:28;3.07;;;1.00;;
46931;SDS011;32670;51.464;11.964;2023-04-06T04:59:53;1.43;;;0.80;;
46931;SDS011;32670;51.464;11.964;2023-04-06T05:02:19;0.70;;;0.70;;
46931;SDS011;32670;51.464;11.964;2023-04-06T05:04:44;0.77;;;0.70;;
46931;SDS011;32670;51.464;11.964;2023-04-06T05:07:10;1.80;;;0.90;;
46931;SDS011;32670;51.464;11.964;2023-04-06T05:09:35;0.87;;;0.60;;
46931;SDS011;32670;51.464;11.964;2023-04-06T05:12:01;1.50;;;0.53;;
46931;SDS011;32670;51.464;11.964;2023-04-06T05:14:27;0.67;;;0.67;;
46931;SDS011;32670;51.464;11.964;2023-04-06T05:16:53;1.87;;;0.60;;
46931;SDS011;32670;51.464;11.964;2023-04-06T05:19:18;0.77;;;0.60;;
46931;SDS011;32670;51.464;11.964;2023-04-06T05:21:44;2.60;;;0.63;;
46931;SDS011;32670;51.464;11.964;2023-04-06T05:24:10;1.73;;;0.80;;
46931;SDS011;32670;51.464;11.964;2023-04-06T05:26:35;0.60;;;0.60;;
46931;SDS011;32670;51.464;11.964;2023-04-06T05:29:01;3.93;;;0.70;;
46931;SDS011;32670;51.464;11.964;2023-04-06T05:31:26;2.07;;;0.70;;
46931;SDS011;32670;51.464;11.964;2023-04-06T05:33:52;1.73;;;0.80;;
46931;SDS011;32670;51.464;11.964;2023-04-06T05:36:18;14.00;;;0.80;;
46931;SDS011;32670;51.464;11.964;2023-04-06T05:38:43;7.80;;;0.70;;
46931;SDS011;32670;51.464;11.964;2023-04-06T05:41:08;12.67;;;3.20;;
46931;SDS011;32670;51.464;11.964;2023-04-06T05:43:34;6.57;;;3.93;;
46931;SDS011;32670;51.464;11.964;2023-04-06T05:46:00;9.03;;;4.83;;
46931;SDS011;32670;51.464;11.964;2023-04-06T05:48:25;6.10;;;4.90;;
46931;SDS011;32670;51.464;11.964;2023-04-06T05:50:51;8.13;;;4.90;;
46931;SDS011;32670;51.464;11.964;2023-04-06T05:53:16;7.17;;;5.07;;
46931;SDS011;32670;51.464;11.964;2023-04-06T05:55:42;6.03;;;5.30;;
46931;SDS011;32670;51.464;11.964;2023-04-06T05:58:09;8.43;;;5.60;;
46931;SDS011;32670;51.464;11.964;2023-04-06T06:00:34;9.30;;;5.40;;
46931;SDS011;32670;51.464;11.964;2023-04-06T06:03:00;10.40;;;5.83;;
46931;SDS011;32670;51.464;11.964;2023-04-06T06:05:29;8.13;;;5.40;;
46931;SDS011;32670;51.464;11.964;2023-04-06T06:07:54;8.43;;;5.60;;
46931;SDS011;32670;51.464;11.964;2023-04-06T06:10:20;8.20;;;5.87;;
46931;SDS011;32670;51.464;11.964;2023-04-06T06:12:45;6.40;;;5.77;;
46931;SDS011;32670;51.464;11.964;2023-04-06T06:15:11;6.93;;;5.60;;
46931;SDS011;32670;51.464;11.964;2023-04-06T06:17:36;10.00;;;5.80;;
46931;SDS011;32670;51.464;11.964;2023-04-06T06:20:03;9.00;;;5.40;;
46931;SDS011;32670;51.464;11.964;2023-04-06T06:22:30;11.23;;;5.93;;
46931;SDS011;32670;51.464;11.964;2023-04-06T06:24:56;7.80;;;5.87;;
46931;SDS011;32670;51.464;11.964;2023-04-06T06:27:21;7.77;;;5.80;;
46931;SDS011;32670;51.464;11.964;2023-04-06T06:29:47;8.90;;;5.57;;
46931;SDS011;32670;51.464;11.964;2023-04-06T06:32:13;6.27;;;5.50;;
46931;SDS011;32670;51.464;11.964;2023-04-06T06:34:39;6.90;;;5.77;;
46931;SDS011;32670;51.464;11.964;2023-04-06T06:37:05;9.07;;;5.67;;
46931;SDS011;32670;51.464;11.964;2023-04-06T06:39:31;6.73;;;5.33;;
46931;SDS011;32670;51.464;11.964;2023-04-06T06:41:56;7.13;;;5.83;;
46931;SDS011;32670;51.464;11.964;2023-04-06T06:44:22;6.70;;;5.30;;
46931;SDS011;32670;51.464;11.964;2023-04-06T06:46:47;7.60;;;5.70;;
46931;SDS011;32670;51.464;11.964;2023-04-06T06:49:13;7.17;;;6.10;;
46931;SDS011;32670;51.464;11.964;2023-04-06T06:51:39;7.03;;;5.37;;
46931;SDS011;32670;51.464;11.964;2023-04-06T06:54:05;8.90;;;5.80;;
46931;SDS011;32670;51.464;11.964;2023-04-06T06:56:30;7.33;;;5.47;;
46931;SDS011;32670;51.464;11.964;2023-04-06T06:58:56;6.20;;;5.60;;
46931;SDS011;32670;51.464;11.964;2023-04-06T07:01:21;6.20;;;5.50;;
46931;SDS011;32670;51.464;11.964;2023-04-06T07:03:47;6.70;;;5.73;;
46931;SDS011;32670;51.464;11.964;2023-04-06T07:06:12;12.47;;;5.70;;
46931;SDS011;32670;51.464;11.964;2023-04-06T07:08:38;7.50;;;5.60;;
46931;SDS011;32670;51.464;11.964;2023-04-06T07:11:03;10.40;;;5.73;;
46931;SDS011;32670;51.464;11.964;2023-04-06T07:13:29;9.90;;;6.27;;
46931;SDS011;32670;51.464;11.964;2023-04-06T07:15:54;7.47;;;5.80;;
46931;SDS011;32670;51.464;11.964;2023-04-06T07:18:20;7.67;;;6.23;;
46931;SDS011;32670;51.464;11.964;2023-04-06T07:20:47;6.07;;;5.23;;
46931;SDS011;32670;51.464;11.964;2023-04-06T07:23:13;9.63;;;5.63;;
46931;SDS011;32670;51.464;11.964;2023-04-06T07:25:38;6.33;;;4.90;;
46931;SDS011;32670;51.464;11.964;2023-04-06T07:28:04;6.97;;;5.47;;
46931;SDS011;32670;51.464;11.964;2023-04-06T07:30:29;11.27;;;5.47;;
46931;SDS011;32670;51.464;11.964;2023-04-06T07:32:55;16.40;;;5.83;;
46931;SDS011;32670;51.464;11.964;2023-04-06T07:35:21;12.07;;;4.70;;
46931;SDS011;32670;51.464;11.964;2023-04-06T07:37:55;10.27;;;4.80;;
46931;SDS011;32670;51.464;11.964;2023-04-06T07:40:21;9.73;;;4.50;;
46931;SDS011;32670;51.464;11.964;2023-04-06T07:42:47;8.20;;;3.80;;
46931;SDS011;32670;51.464;11.964;2023-04-06T07:45:12;5.33;;;3.80;;
46931;SDS011;32670;51.464;11.964;2023-04-06T07:47:38;7.73;;;3.90;;
46931;SDS011;32670;51.464;11.964;2023-04-06T07:50:04;5.57;;;3.70;;
46931;SDS011;32670;51.464;11.964;2023-04-06T07:52:30;9.13;;;3.80;;
46931;SDS011;32670;51.464;11.964;2023-04-06T07:54:56;5.23;;;3.83;;
46931;SDS011;32670;51.464;11.964;2023-04-06T07:57:22;5.03;;;3.80;;
46931;SDS011;32670;51.464;11.964;2023-04-06T07:59:48;5.43;;;4.20;;
46931;SDS011;32670;51.464;11.964;2023-04-06T08:02:13;8.37;;;3.50;;
46931;SDS011;32670;51.464;11.964;2023-04-06T08:04:39;5.00;;;3.50;;
46931;SDS011;32670;51.464;11.964;2023-04-06T08:07:05;9.50;;;3.37;;
46931;SDS011;32670;51.464;11.964;2023-04-06T08:09:30;4.60;;;3.10;;
46931;SDS011;32670;51.464;11.964;2023-04-06T08:11:56;3.80;;;3.40;;
46931;SDS011;32670;51.464;11.964;2023-04-06T08:14:21;5.47;;;3.37;;
46931;SDS011;32670;51.464;11.964;2023-04-06T08:16:47;4.27;;;3.27;;
46931;SDS011;32670;51.464;11.964;2023-04-06T08:19:12;5.63;;;3.37;;
46931;SDS011;32670;51.464;11.964;2023-04-06T08:21:38;4.13;;;2.87;;
46931;SDS011;32670;51.464;11.964;2023-04-06T08:24:05;5.53;;;3.30;;
46931;SDS011;32670;51.464;11.964;2023-04-06T08:26:31;4.53;;;3.23;;
46931;SDS011;32670;51.464;11.964;2023-04-06T08:28:56;4.87;;;3.50;;
46931;SDS011;32670;51.464;11.964;2023-04-06T08:31:22;5.30;;;3.30;;
46931;SDS011;32670;51.464;11.964;2023-04-06T08:33:47;3.43;;;3.00;;
46931;SDS011;32670;51.464;11.964;2023-04-06T08:36:13;4.57;;;3.20;;
46931;SDS011;32670;51.464;11.964;2023-04-06T08:38:40;5.23;;;3.50;;
46931;SDS011;32670;51.464;11.964;2023-04-06T08:41:06;4.07;;;3.20;;
46931;SDS011;32670;51.464;11.964;2023-04-06T08:43:33;3.67;;;3.23;;
46931;SDS011;32670;51.464;11.964;2023-04-06T08:46:04;3.87;;;3.20;;
46931;SDS011;32670;51.464;11.964;2023-04-06T08:48:30;3.37;;;3.00;;
46931;SDS011;32670;51.464;11.964;2023-04-06T08:50:55;4.43;;;3.23;;
46931;SDS011;32670;51.464;11.964;2023-04-06T08:53:21;4.83;;;3.33;;
46931;SDS011;32670;51.464;11.964;2023-04-06T08:55:47;3.80;;;3.00;;
46931;SDS011;32670;51.464;11.964;2023-04-06T08:58:13;4.93;;;3.30;;
46931;SDS011;32670;51.464;11.964;2023-04-06T09:00:39;3.30;;;3.00;;
46931;SDS011;32670;51.464;11.964;2023-04-06T09:03:05;4.00;;;3.07;;
46931;SDS011;32670;51.464;11.964;2023-04-06T09:05:32;3.97;;;3.20;;
46931;SDS011;32670;51.464;11.964;2023-04-06T09:07:57;5.87;;;3.03;;
46931;SDS011;32670;51.464;11.964;2023-04-06T09:10:23;4.77;;;3.10;;
46931;SDS011;32670;51.464;11.964;2023-04-06T09:12:50;5.43;;;3.30;;
46931;SDS011;32670;51.464;11.964;2023-04-06T09:15:19;4.07;;;3.23;;
46931;SDS011;32670;51.464;11.964;2023-04-06T09:17:46;5.03;;;3.50;;
46931;SDS011;32670;51.464;11.964;2023-04-06T09:20:12;4.77;;;3.23;;
46931;SDS011;32670;51.464;11.964;2023-04-06T09:22:38;3.30;;;3.00;;
46931;SDS011;32670;51.464;11.964;2023-04-06T09:25:04;3.40;;;3.10;;
46931;SDS011;32670;51.464;11.964;2023-04-06T09:27:35;3.07;;;2.83;;
46931;SDS011;32670;51.464;11.964;2023-04-06T09:30:09;4.03;;;2.80;;
46931;SDS011;32670;51.464;11.964;2023-04-06T09:32:44;4.30;;;2.77;;
46931;SDS011;32670;51.464;11.964;2023-04-06T09:35:11;3.10;;;2.80;;
46931;SDS011;32670;51.464;11.964;2023-04-06T09:37:37;2.97;;;2.70;;
46931;SDS011;32670;51.464;11.964;2023-04-06T09:40:03;3.63;;;3.03;;
46931;SDS011;32670;51.464;11.964;2023-04-06T09:42:32;3.33;;;3.03;;
46931;SDS011;32670;51.464;11.964;2023-04-06T09:44:59;3.30;;;2.77;;
46931;SDS011;32670;51.464;11.964;2023-04-06T09:47:25;3.90;;;2.80;;
46931;SDS011;32670;51.464;11.964;2023-04-06T09:49:55;3.23;;;2.57;;
46931;SDS011;32670;51.464;11.964;2023-04-06T09:52:32;3.10;;;2.70;;
46931;SDS011;32670;51.464;11.964;2023-04-06T09:55:02;3.53;;;2.60;;
46931;SDS011;32670;51.464;11.964;2023-04-06T09:57:36;3.13;;;2.80;;
46931;SDS011;32670;51.464;11.964;2023-04-06T10:00:08;2.87;;;2.60;;
46931;SDS011;32670;51.464;11.964;2023-04-06T10:02:50;3.73;;;3.33;;
46931;SDS011;32670;51.464;11.964;2023-04-06T10:05:31;4.10;;;2.90;;
46931;SDS011;32670;51.464;11.964;2023-04-06T10:08:05;3.13;;;2.60;;
46931;SDS011;32670;51.464;11.964;2023-04-06T10:10:33;2.90;;;2.60;;
46931;SDS011;32670;51.464;11.964;2023-04-06T10:12:59;2.83;;;2.63;;
46931;SDS011;32670;51.464;11.964;2023-04-06T10:15:25;2.87;;;2.57;;
46931;SDS011;32670;51.464;11.964;2023-04-06T10:17:53;2.97;;;2.60;;
46931;SDS011;32670;51.464;11.964;2023-04-06T10:20:23;3.97;;;3.20;;
46931;SDS011;32670;51.464;11.964;2023-04-06T10:23:13;3.67;;;2.50;;
46931;SDS011;32670;51.464;11.964;2023-04-06T10:25:51;4.17;;;2.77;;
46931;SDS011;32670;51.464;11.964;2023-04-06T10:28:21;2.93;;;2.63;;
46931;SDS011;32670;51.464;11.964;2023-04-06T10:30:47;2.70;;;2.50;;
46931;SDS011;32670;51.464;11.964;2023-04-06T10:33:19;2.87;;;2.60;;
46931;SDS011;32670;51.464;11.964;2023-04-06T10:35:45;2.40;;;2.20;;
46931;SDS011;32670;51.464;11.964;2023-04-06T10:38:11;3.63;;;2.80;;
46931;SDS011;32670;51.464;11.964;2023-04-06T10:40:39;3.13;;;2.80;;
46931;SDS011;32670;51.464;11.964;2023-04-06T10:43:18;3.03;;;2.73;;
46931;SDS011;32670;51.464;11.964;2023-04-06T10:45:45;3.00;;;2.43;;
46931;SDS011;32670;51.464;11.964;2023-04-06T10:48:20;3.73;;;2.80;;
46931;SDS011;32670;51.464;11.964;2023-04-06T10:50:50;3.50;;;2.90;;
46931;SDS011;32670;51.464;11.964;2023-04-06T10:53:35;3.57;;;2.80;;
46931;SDS011;32670;51.464;11.964;2023-04-06T10:56:01;2.70;;;2.50;;
46931;SDS011;32670;51.464;11.964;2023-04-06T10:58:28;3.40;;;2.73;;
46931;SDS011;32670;51.464;11.964;2023-04-06T11:00:55;3.40;;;2.60;;
46931;SDS011;32670;51.464;11.964;2023-04-06T11:03:21;3.00;;;2.70;;
46931;SDS011;32670;51.464;11.964;2023-04-06T11:05:48;2.70;;;2.50;;
46931;SDS011;32670;51.464;11.964;2023-04-06T11:08:31;2.67;;;2.47;;
46931;SDS011;32670;51.464;11.964;2023-04-06T11:11:10;2.87;;;2.40;;
46931;SDS011;32670;51.464;11.964;2023-04-06T11:13:50;2.80;;;2.60;;
46931;SDS011;32670;51.464;11.964;2023-04-06T11:16:18;2.70;;;2.50;;
46931;SDS011;32670;51.464;11.964;2023-04-06T11:18:46;2.57;;;2.20;;
46931;SDS011;32670;51.464;11.964;2023-04-06T11:21:15;2.70;;;2.50;;
46931;SDS011;32670;51.464;11.964;2023-04-06T11:23:42;2.60;;;2.40;;
46931;SDS011;32670;51.464;11.964;2023-04-06T11:26:14;4.60;;;2.80;;
46931;SDS011;32670;51.464;11.964;2023-04-06T11:28:40;3.27;;;2.37;;
46931;SDS011;32670;51.464;11.964;2023-04-06T11:31:08;3.17;;;2.40;;
46931;SDS011;32670;51.464;11.964;2023-04-06T11:33:38;2.53;;;2.33;;
46931;SDS011;32670;51.464;11.964;2023-04-06T11:36:04;2.77;;;2.57;;
46931;SDS011;32670;51.464;11.964;2023-04-06T11:38:31;2.60;;;2.40;;
46931;SDS011;32670;51.464;11.964;2023-04-06T11:40:56;3.73;;;2.63;;
46931;SDS011;32670;51.464;11.964;2023-04-06T11:43:29;2.53;;;2.33;;
46931;SDS011;32670;51.464;11.964;2023-04-06T11:46:01;2.80;;;2.60;;
46931;SDS011;32670;51.464;11.964;2023-04-06T11:48:28;2.47;;;2.27;;
46931;SDS011;32670;51.464;11.964;2023-04-06T11:50:58;4.17;;;2.70;;
46931;SDS011;32670;51.464;11.964;2023-04-06T11:53:26;2.50;;;2.30;;
46931;SDS011;32670;51.464;11.964;2023-04-06T11:55:54;3.30;;;2.90;;
46931;SDS011;32670;51.464;11.964;2023-04-06T11:58:20;2.93;;;2.60;;
46931;SDS011;32670;51.464;11.964;2023-04-06T12:00:46;2.60;;;2.40;;
46931;SDS011;32670;51.464;11.964;2023-04-06T12:03:11;3.43;;;2.70;;
46931;SDS011;32670;51.464;11.964;2023-04-06T12:05:37;2.87;;;2.67;;
46931;SDS011;32670;51.464;11.964;2023-04-06T12:08:03;5.10;;;4.60;;
46931;SDS011;32670;51.464;11.964;2023-04-06T12:10:29;4.77;;;4.30;;
46931;SDS011;32670;51.464;11.964;2023-04-06T12:12:54;5.53;;;4.93;;
46931;SDS011;32670;51.464;11.964;2023-04-06T12:15:20;5.97;;;4.40;;
46931;SDS011;32670;51.464;11.964;2023-04-06T12:17:45;5.80;;;3.97;;
46931;SDS011;32670;51.464;11.964;2023-04-06T12:20:11;5.07;;;4.50;;
46931;SDS011;32670;51.464;11.964;2023-04-06T12:22:36;4.57;;;3.90;;
46931;SDS011;32670;51.464;11.964;2023-04-06T12:25:02;4.63;;;4.20;;
46931;SDS011;32670;51.464;11.964;2023-04-06T12:27:27;4.37;;;3.97;;
46931;SDS011;32670;51.464;11.964;2023-04-06T12:29:53;4.53;;;3.90;;
46931;SDS011;32670;51.464;11.964;2023-04-06T12:32:18;4.43;;;4.00;;
46931;SDS011;32670;51.464;11.964;2023-04-06T12:34:44;3.67;;;3.37;;
46931;SDS011;32670;51.464;11.964;2023-04-06T12:37:09;4.60;;;4.20;;
46931;SDS011;32670;51.464;11.964;2023-04-06T12:39:35;4.27;;;3.57;;
46931;SDS011;32670;51.464;11.964;2023-04-06T12:42:01;4.00;;;3.63;;
46931;SDS011;32670;51.464;11.964;2023-04-06T12:44:27;4.70;;;4.20;;
46931;SDS011;32670;51.464;11.964;2023-04-06T12:46:53;3.73;;;3.33;;
46931;SDS011;32670;51.464;11.964;2023-04-06T12:49:18;4.20;;;3.80;;
46931;SDS011;32670;51.464;11.964;2023-04-06T12:51:44;4.20;;;3.53;;
46931;SDS011;32670;51.464;11.964;2023-04-06T12:54:10;4.37;;;3.97;;
46931;SDS011;32670;51.464;11.964;2023-04-06T12:56:36;4.30;;;3.90;;
46931;SDS011;32670;51.464;11.964;2023-04-06T12:59:02;4.43;;;4.03;;
46931;SDS011;32670;51.464;11.964;2023-04-06T13:01:27;4.53;;;4.03;;
46931;SDS011;32670;51.464;11.964;2023-04-06T13:03:53;4.40;;;4.00;;
46931;SDS011;32670;51.464;11.964;2023-04-06T13:06:19;4.50;;;4.10;;
46931;SDS011;32670;51.464;11.964;2023-04-06T13:08:45;4.20;;;3.80;;
46931;SDS011;32670;51.464;11.964;2023-04-06T13:11:12;4.80;;;4.07;;
46931;SDS011;32670;51.464;11.964;2023-04-06T13:13:37;4.40;;;4.00;;
46931;SDS011;32670;51.464;11.964;2023-04-06T13:16:04;4.17;;;3.77;;
46931;SDS011;32670;51.464;11.964;2023-04-06T13:18:31;3.53;;;3.23;;
46931;SDS011;32670;51.464;11.964;2023-04-06T13:20:57;4.40;;;3.97;;
46931;SDS011;32670;51.464;11.964;2023-04-06T13:23:24;4.33;;;3.93;;
46931;SDS011;32670;51.464;11.964;2023-04-06T13:26:00;3.93;;;3.63;;
46931;SDS011;32670;51.464;11.964;2023-04-06T13:28:26;4.10;;;3.70;;
46931;SDS011;32670;51.464;11.964;2023-04-06T13:30:53;4.67;;;4.00;;
46931;SDS011;32670;51.464;11.964;2023-04-06T13:33:18;4.50;;;4.10;;
46931;SDS011;32670;51.464;11.964;2023-04-06T13:35:44;6.83;;;5.13;;
46931;SDS011;32670;51.464;11.964;2023-04-06T13:38:10;6.80;;;4.97;;
46931;SDS011;32670;51.464;11.964;2023-04-06T13:40:38;4.97;;;4.47;;
46931;SDS011;32670;51.464;11.964;2023-04-06T13:43:04;5.20;;;4.40;;
46931;SDS011;32670;51.464;11.964;2023-04-06T13:45:30;5.47;;;4.47;;
46931;SDS011;32670;51.464;11.964;2023-04-06T13:47:55;5.60;;;5.10;;
46931;SDS011;32670;51.464;11.964;2023-04-06T13:50:21;6.50;;;5.20;;
46931;SDS011;32670;51.464;11.964;2023-04-06T13:52:46;5.80;;;4.97;;
46931;SDS011;32670;51.464;11.964;2023-04-06T13:55:12;5.47;;;4.93;;
46931;SDS011;32670;51.464;11.964;2023-04-06T13:57:37;4.93;;;4.43;;
46931;SDS011;32670;51.464;11.964;2023-04-06T14:00:03;5.43;;;4.93;;
46931;SDS011;32670;51.464;11.964;2023-04-06T14:02:30;5.43;;;4.73;;
46931;SDS011;32670;51.464;11.964;2023-04-06T14:04:55;5.27;;;4.27;;
46931;SDS011;32670;51.464;11.964;2023-04-06T14:07:21;5.23;;;4.73;;
46931;SDS011;32670;51.464;11.964;2023-04-06T14:09:47;5.00;;;4.50;;
46931;SDS011;32670;51.464;11.964;2023-04-06T14:12:12;4.60;;;4.20;;
46931;SDS011;32670;51.464;11.964;2023-04-06T14:14:38;5.07;;;4.40;;
46931;SDS011;32670;51.464;11.964;2023-04-06T14:17:03;5.47;;;4.97;;
46931;SDS011;32670;51.464;11.964;2023-04-06T14:19:28;4.87;;;4.47;;
46931;SDS011;32670;51.464;11.964;2023-04-06T14:21:54;4.83;;;4.43;;
46931;SDS011;32670;51.464;11.964;2023-04-06T14:24:21;4.70;;;4.30;;
46931;SDS011;32670;51.464;11.964;2023-04-06T14:26:46;5.43;;;4.90;;
46931;SDS011;32670;51.464;11.964;2023-04-06T14:29:12;4.67;;;4.20;;